sensor_id;sensor_type;location;lat;lon;timestamp;pressure;altitude;pressure_sealevel;temperature;humidity
66681;BME280;53575;51.366;12.350;2023-02-19T00:01:21;100245.59;;;8.97;100.00
66681;BME280;53575;51.366;12.350;2023-02-19T00:03:55;100241.25;;;9.02;100.00
66681;BME280;53575;51.366;12.350;2023-02-19T00:06:23;100241.25;;;9.01;100.00
66681;BME280;53575;51.366;12.350;2023-02-19T00:08:49;100233.44;;;8.98;100.00
66681;BME280;53575;51.366;12.350;2023-02-19T00:11:17;100221.28;;;8.97;100.00
66681;BME280;53575;51.366;12.350;2023-02-19T00:13:45;100220.41;;;8.93;100.00
66681;BME280;53575;51.366;12.350;2023-02-19T00:16:24;100236.03;;;8.96;100.00
66681;BME280;53575;51.366;12.350;2023-02-19T00:18:49;100225.63;;;8.92;100.00
66681;BME280;53575;51.366;12.350;2023-02-19T00:21:15;100221.28;;;8.97;100.00
66681;BME280;53575;51.366;12.350;2023-02-19T00:23:41;100222.16;;;8.97;100.00
66681;BME280;53575;51.366;12.350;2023-02-19T00:26:11;100227.38;;;8.97;100.00
66681;BME280;53575;51.366;12.350;2023-02-19T00:28:37;100223.88;;;8.95;100.00
66681;BME280;53575;51.366;12.350;2023-02-19T00:31:09;100221.28;;;8.97;100.00
66681;BME280;53575;51.366;12.350;2023-02-19T00:33:39;100218.69;;;8.97;100.00
66681;BME280;53575;51.366;12.350;2023-02-19T00:36:05;100223.88;;;9.01;100.00
66681;BME280;53575;51.366;12.350;2023-02-19T00:38:31;100219.53;;;8.99;100.00
66681;BME280;53575;51.366;12.350;2023-02-19T00:40:59;100221.28;;;8.94;100.00
66681;BME280;53575;51.366;12.350;2023-02-19T00:43:25;100209.13;;;8.90;100.00
66681;BME280;53575;51.366;12.350;2023-02-19T00:45:50;100204.78;;;8.84;100.00
66681;BME280;53575;51.366;12.350;2023-02-19T00:48:16;100204.78;;;8.79;100.00
66681;BME280;53575;51.366;12.350;2023-02-19T00:50:42;100199.59;;;8.70;100.00
66681;BME280;53575;51.366;12.350;2023-02-19T00:53:07;100200.47;;;8.74;100.00
66681;BME280;53575;51.366;12.350;2023-02-19T00:55:32;100199.59;;;8.70;100.00
66681;BME280;53575;51.366;12.350;2023-02-19T00:57:58;100209.13;;;8.71;100.00
66681;BME280;53575;51.366;12.350;2023-02-19T01:00:23;100200.47;;;8.59;100.00
66681;BME280;53575;51.366;12.350;2023-02-19T01:02:49;100199.56;;;8.53;100.00
66681;BME280;53575;51.366;12.350;2023-02-19T01:05:14;100199.56;;;8.50;100.00
66681;BME280;53575;51.366;12.350;2023-02-19T01:07:40;100210.88;;;8.45;100.00
66681;BME280;53575;51.366;12.350;2023-02-19T01:10:06;100208.25;;;8.46;100.00
66681;BME280;53575;51.366;12.350;2023-02-19T01:12:31;100201.28;;;8.39;100.00
66681;BME280;53575;51.366;12.350;2023-02-19T01:14:57;100200.44;;;8.39;100.00
66681;BME280;53575;51.366;12.350;2023-02-19T01:17:23;100194.31;;;8.35;100.00
66681;BME280;53575;51.366;12.350;2023-02-19T01:19:49;100189.13;;;8.37;100.00
66681;BME280;53575;51.366;12.350;2023-02-19T01:22:14;100194.38;;;8.40;100.00
66681;BME280;53575;51.366;12.350;2023-02-19T01:24:40;100176.97;;;8.33;100.00
66681;BME280;53575;51.366;12.350;2023-02-19T01:27:05;100170.06;;;8.41;100.00
66681;BME280;53575;51.366;12.350;2023-02-19T01:29:31;100166.59;;;8.43;100.00
66681;BME280;53575;51.366;12.350;2023-02-19T01:31:56;100153.56;;;8.36;100.00
66681;BME280;53575;51.366;12.350;2023-02-19T01:34:22;100146.59;;;8.36;100.00
66681;BME280;53575;51.366;12.350;2023-02-19T01:36:47;100149.19;;;8.27;100.00
66681;BME280;53575;51.366;12.350;2023-02-19T01:39:12;100148.31;;;8.26;100.00
66681;BME280;53575;51.366;12.350;2023-02-19T01:41:39;100145.72;;;8.23;100.00
66681;BME280;53575;51.366;12.350;2023-02-19T01:46:42;100138.75;;;8.16;100.00
66681;BME280;53575;51.366;12.350;2023-02-19T01:49:46;100135.28;;;8.16;100.00
66681;BME280;53575;51.366;12.350;2023-02-19T01:52:28;100122.28;;;8.16;100.00
66681;BME280;53575;51.366;12.350;2023-02-19T01:54:57;100104.94;;;8.12;100.00
66681;BME280;53575;51.366;12.350;2023-02-19T01:57:26;100096.25;;;8.08;100.00
66681;BME280;53575;51.366;12.350;2023-02-19T01:59:57;100099.72;;;8.07;100.00
66681;BME280;53575;51.366;12.350;2023-02-19T02:02:26;100092.78;;;8.03;100.00
66681;BME280;53575;51.366;12.350;2023-02-19T02:04:54;100086.72;;;8.07;100.00
66681;BME280;53575;51.366;12.350;2023-02-19T02:07:21;100078.91;;;8.04;100.00
66681;BME280;53575;51.366;12.350;2023-02-19T02:10:06;100084.09;;;8.01;100.00
66681;BME280;53575;51.366;12.350;2023-02-19T02:12:47;100079.75;;;8.04;100.00
66681;BME280;53575;51.366;12.350;2023-02-19T02:15:14;100072.81;;;8.05;100.00
66681;BME280;53575;51.366;12.350;2023-02-19T02:23:42;100054.63;;;8.03;100.00
66681;BME280;53575;51.366;12.350;2023-02-19T02:32:19;100036.41;;;8.06;100.00
66681;BME280;53575;51.366;12.350;2023-02-19T02:34:53;100021.66;;;8.04;100.00
66681;BME280;53575;51.366;12.350;2023-02-19T02:37:23;100016.44;;;8.04;100.00
66681;BME280;53575;51.366;12.350;2023-02-19T02:39:50;100017.31;;;8.15;100.00
66681;BME280;53575;51.366;12.350;2023-02-19T02:42:16;100019.06;;;8.05;100.00
66681;BME280;53575;51.366;12.350;2023-02-19T02:44:55;100016.44;;;8.07;100.00
66681;BME280;53575;51.366;12.350;2023-02-19T02:47:48;100015.56;;;8.08;100.00
66681;BME280;53575;51.366;12.350;2023-02-19T02:50:22;100017.31;;;8.06;100.00
66681;BME280;53575;51.366;12.350;2023-02-19T02:52:51;100012.97;;;8.05;100.00
66681;BME280;53575;51.366;12.350;2023-02-19T02:55:42;100015.59;;;8.02;100.00
66681;BME280;53575;51.366;12.350;2023-02-19T02:58:09;100013.81;;;8.16;100.00
66681;BME280;53575;51.366;12.350;2023-02-19T03:00:36;100006.03;;;8.07;100.00
66681;BME280;53575;51.366;12.350;2023-02-19T03:03:23;100005.19;;;8.10;100.00
66681;BME280;53575;51.366;12.350;2023-02-19T03:05:52;100001.69;;;8.04;100.00
66681;BME280;53575;51.366;12.350;2023-02-19T03:08:37;99983.47;;;8.07;100.00
66681;BME280;53575;51.366;12.350;2023-02-19T03:11:09;99982.63;;;8.13;100.00
66681;BME280;53575;51.366;12.350;2023-02-19T03:14:17;99966.13;;;8.05;100.00
66681;BME280;53575;51.366;12.350;2023-02-19T03:17:25;99971.34;;;8.11;100.00
66681;BME280;53575;51.366;12.350;2023-02-19T03:20:13;99973.06;;;8.07;100.00
66681;BME280;53575;51.366;12.350;2023-02-19T03:22:41;99973.97;;;8.10;100.00
66681;BME280;53575;51.366;12.350;2023-02-19T03:25:12;99978.25;;;8.12;100.00
66681;BME280;53575;51.366;12.350;2023-02-19T03:28:00;99974.81;;;8.04;100.00
66681;BME280;53575;51.366;12.350;2023-02-19T03:30:31;99980.91;;;8.09;100.00
66681;BME280;53575;51.366;12.350;2023-02-19T03:33:01;99981.75;;;8.03;100.00
66681;BME280;53575;51.366;12.350;2023-02-19T03:35:34;99978.28;;;8.06;100.00
66681;BME280;53575;51.366;12.350;2023-02-19T03:41:06;99971.34;;;8.08;100.00
66681;BME280;53575;51.366;12.350;2023-02-19T03:43:44;99964.41;;;8.01;100.00
66681;BME280;53575;51.366;12.350;2023-02-19T03:46:21;99949.66;;;8.03;100.00
66681;BME280;53575;51.366;12.350;2023-02-19T03:48:54;99949.66;;;8.06;100.00
66681;BME280;53575;51.366;12.350;2023-02-19T03:54:10;99949.66;;;8.06;100.00
66681;BME280;53575;51.366;12.350;2023-02-19T04:02:08;99947.06;;;8.04;100.00
66681;BME280;53575;51.366;12.350;2023-02-19T04:05:02;99945.31;;;8.05;100.00
66681;BME280;53575;51.366;12.350;2023-02-19T04:07:33;99940.97;;;8.04;100.00
66681;BME280;53575;51.366;12.350;2023-02-19T04:10:01;99943.56;;;8.09;100.00
66681;BME280;53575;51.366;12.350;2023-02-19T04:12:28;99947.94;;;8.00;100.00
66681;BME280;53575;51.366;12.350;2023-02-19T04:15:00;99948.81;;;7.98;100.00
66681;BME280;53575;51.366;12.350;2023-02-19T04:17:57;99966.13;;;8.00;100.00
66681;BME280;53575;51.366;12.350;2023-02-19T04:20:26;99971.38;;;8.02;100.00
66681;BME280;53575;51.366;12.350;2023-02-19T04:22:55;99973.94;;;8.03;100.00
66681;BME280;53575;51.366;12.350;2023-02-19T04:25:22;99967.88;;;8.00;100.00
66681;BME280;53575;51.366;12.350;2023-02-19T04:27:48;99974.78;;;8.09;100.00
66681;BME280;53575;51.366;12.350;2023-02-19T04:30:13;99996.50;;;8.15;100.00
66681;BME280;53575;51.366;12.350;2023-02-19T04:32:39;100002.56;;;7.96;100.00
66681;BME280;53575;51.366;12.350;2023-02-19T04:35:05;99990.44;;;7.95;100.00
66681;BME280;53575;51.366;12.350;2023-02-19T04:37:30;99999.09;;;8.03;100.00
66681;BME280;53575;51.366;12.350;2023-02-19T04:39:55;100006.91;;;8.04;100.00
66681;BME280;53575;51.366;12.350;2023-02-19T04:42:21;100005.19;;;8.02;100.00
66681;BME280;53575;51.366;12.350;2023-02-19T04:44:46;99989.56;;;8.00;100.00
66681;BME280;53575;51.366;12.350;2023-02-19T04:47:12;99995.66;;;7.95;100.00
66681;BME280;53575;51.366;12.350;2023-02-19T04:49:37;99999.13;;;7.94;100.00
66681;BME280;53575;51.366;12.350;2023-02-19T04:52:03;99996.50;;;7.95;100.00
66681;BME280;53575;51.366;12.350;2023-02-19T04:54:28;99987.84;;;7.86;100.00
66681;BME280;53575;51.366;12.350;2023-02-19T04:56:53;99984.38;;;7.80;100.00
66681;BME280;53575;51.366;12.350;2023-02-19T04:59:19;99993.91;;;7.85;100.00
66681;BME280;53575;51.366;12.350;2023-02-19T05:01:44;99991.31;;;7.81;100.00
66681;BME280;53575;51.366;12.350;2023-02-19T05:04:10;99983.50;;;7.88;100.00
66681;BME280;53575;51.366;12.350;2023-02-19T05:06:35;99985.22;;;7.89;100.00
66681;BME280;53575;51.366;12.350;2023-02-19T05:09:01;99989.56;;;7.90;100.00
66681;BME280;53575;51.366;12.350;2023-02-19T05:11:26;99992.16;;;7.90;100.00
66681;BME280;53575;51.366;12.350;2023-02-19T05:13:53;99993.06;;;7.84;100.00
66681;BME280;53575;51.366;12.350;2023-02-19T05:16:19;99991.31;;;7.92;100.00
66681;BME280;53575;51.366;12.350;2023-02-19T05:18:45;99993.03;;;7.93;100.00
66681;BME280;53575;51.366;12.350;2023-02-19T05:21:11;99989.56;;;7.97;100.00
66681;BME280;53575;51.366;12.350;2023-02-19T05:23:37;99993.91;;;8.00;100.00
66681;BME280;53575;51.366;12.350;2023-02-19T05:26:10;99989.56;;;8.00;100.00
66681;BME280;53575;51.366;12.350;2023-02-19T05:28:36;100004.31;;;8.00;100.00
66681;BME280;53575;51.366;12.350;2023-02-19T05:31:06;99999.97;;;7.96;100.00
66681;BME280;53575;51.366;12.350;2023-02-19T05:33:32;99994.75;;;8.05;100.00
66681;BME280;53575;51.366;12.350;2023-02-19T05:35:58;99989.56;;;7.97;100.00
66681;BME280;53575;51.366;12.350;2023-02-19T05:38:24;99998.22;;;8.04;100.00
66681;BME280;53575;51.366;12.350;2023-02-19T05:40:49;99998.25;;;7.99;100.00
66681;BME280;53575;51.366;12.350;2023-02-19T05:43:16;99995.63;;;7.96;100.00
66681;BME280;53575;51.366;12.350;2023-02-19T05:45:41;99993.91;;;8.00;100.00
66681;BME280;53575;51.366;12.350;2023-02-19T05:48:07;99991.28;;;8.04;100.00
66681;BME280;53575;51.366;12.350;2023-02-19T05:50:34;99992.19;;;8.02;100.00
66681;BME280;53575;51.366;12.350;2023-02-19T05:53:01;99999.09;;;8.04;100.00
66681;BME280;53575;51.366;12.350;2023-02-19T05:55:28;99996.50;;;8.03;100.00
66681;BME280;53575;51.366;12.350;2023-02-19T05:57:53;100005.19;;;8.03;100.00
66681;BME280;53575;51.366;12.350;2023-02-19T06:00:19;100010.38;;;7.99;100.00
66681;BME280;53575;51.366;12.350;2023-02-19T06:02:45;100015.59;;;8.06;100.00
66681;BME280;53575;51.366;12.350;2023-02-19T06:05:11;100018.19;;;8.00;100.00
66681;BME280;53575;51.366;12.350;2023-02-19T06:07:37;100019.03;;;8.16;100.00
66681;BME280;53575;51.366;12.350;2023-02-19T06:10:08;100030.31;;;8.12;100.00
66681;BME280;53575;51.366;12.350;2023-02-19T06:12:34;100033.81;;;8.17;100.00
66681;BME280;53575;51.366;12.350;2023-02-19T06:15:00;100037.25;;;8.16;100.00
66681;BME280;53575;51.366;12.350;2023-02-19T06:17:25;100036.38;;;8.19;100.00
66681;BME280;53575;51.366;12.350;2023-02-19T06:19:50;100041.63;;;8.10;100.00
66681;BME280;53575;51.366;12.350;2023-02-19T06:22:16;100042.47;;;8.12;100.00
66681;BME280;53575;51.366;12.350;2023-02-19T06:24:41;100043.34;;;8.07;100.00
66681;BME280;53575;51.366;12.350;2023-02-19T06:27:08;100054.59;;;8.08;100.00
66681;BME280;53575;51.366;12.350;2023-02-19T06:29:33;100052.03;;;8.10;100.00
66681;BME280;53575;51.366;12.350;2023-02-19T06:31:59;100064.16;;;8.17;100.00
66681;BME280;53575;51.366;12.350;2023-02-19T06:34:25;100078.03;;;8.14;100.00
66681;BME280;53575;51.366;12.350;2023-02-19T06:36:51;100076.31;;;8.10;100.00
66681;BME280;53575;51.366;12.350;2023-02-19T06:39:16;100092.78;;;8.11;100.00
66681;BME280;53575;51.366;12.350;2023-02-19T06:41:42;100108.41;;;8.21;100.00
66681;BME280;53575;51.366;12.350;2023-02-19T06:44:07;100118.81;;;8.09;100.00
66681;BME280;53575;51.366;12.350;2023-02-19T06:46:33;100113.53;;;7.62;100.00
66681;BME280;53575;51.366;12.350;2023-02-19T06:48:59;100129.00;;;7.23;100.00
66681;BME280;53575;51.366;12.350;2023-02-19T06:51:25;100132.31;;;6.95;100.00
66681;BME280;53575;51.366;12.350;2023-02-19T06:53:52;100145.13;;;6.66;100.00
66681;BME280;53575;51.366;12.350;2023-02-19T06:56:32;100151.19;;;6.65;100.00
66681;BME280;53575;51.366;12.350;2023-02-19T06:59:01;100151.19;;;6.69;100.00
66681;BME280;53575;51.366;12.350;2023-02-19T07:01:28;100162.34;;;6.56;100.00
66681;BME280;53575;51.366;12.350;2023-02-19T07:03:53;100177.66;;;6.22;100.00
66681;BME280;53575;51.366;12.350;2023-02-19T07:06:21;100190.56;;;6.16;100.00
66681;BME280;53575;51.366;12.350;2023-02-19T07:08:47;100191.13;;;5.89;100.00
66681;BME280;53575;51.366;12.350;2023-02-19T07:11:12;100187.53;;;5.79;100.00
66681;BME280;53575;51.366;12.350;2023-02-19T07:13:38;100190.91;;;5.69;100.00
66681;BME280;53575;51.366;12.350;2023-02-19T07:16:06;100200.41;;;5.70;100.00
66681;BME280;53575;51.366;12.350;2023-02-19T07:18:32;100208.00;;;5.55;100.00
66681;BME280;53575;51.366;12.350;2023-02-19T07:21:11;100208.09;;;5.62;100.00
66681;BME280;53575;51.366;12.350;2023-02-19T07:23:37;100226.06;;;5.49;100.00
66681;BME280;53575;51.366;12.350;2023-02-19T07:26:03;100249.09;;;5.27;100.00
66681;BME280;53575;51.366;12.350;2023-02-19T07:28:29;100251.59;;;5.20;100.00
66681;BME280;53575;51.366;12.350;2023-02-19T07:31:00;100257.56;;;5.16;100.00
66681;BME280;53575;51.366;12.350;2023-02-19T07:33:26;100260.63;;;4.92;100.00
66681;BME280;53575;51.366;12.350;2023-02-19T07:35:52;100270.91;;;4.85;100.00
66681;BME280;53575;51.366;12.350;2023-02-19T07:38:23;100278.81;;;4.93;100.00
66681;BME280;53575;51.366;12.350;2023-02-19T07:40:56;100290.75;;;4.85;100.00
66681;BME280;53575;51.366;12.350;2023-02-19T07:43:25;100302.78;;;4.81;100.00
66681;BME280;53575;51.366;12.350;2023-02-19T07:45:51;100311.63;;;4.96;100.00
66681;BME280;53575;51.366;12.350;2023-02-19T07:48:17;100318.31;;;4.83;100.00
66681;BME280;53575;51.366;12.350;2023-02-19T07:50:57;100323.50;;;4.81;100.00
66681;BME280;53575;51.366;12.350;2023-02-19T07:53:23;100330.34;;;4.79;100.00
66681;BME280;53575;51.366;12.350;2023-02-19T07:55:50;100334.44;;;4.68;100.00
66681;BME280;53575;51.366;12.350;2023-02-19T07:58:16;100334.59;;;4.76;100.00
66681;BME280;53575;51.366;12.350;2023-02-19T08:00:41;100351.09;;;4.82;100.00
66681;BME280;53575;51.366;12.350;2023-02-19T08:03:07;100353.03;;;4.94;100.00
66681;BME280;53575;51.366;12.350;2023-02-19T08:05:37;100360.72;;;4.89;100.00
66681;BME280;53575;51.366;12.350;2023-02-19T08:08:05;100370.31;;;4.94;100.00
66681;BME280;53575;51.366;12.350;2023-02-19T08:10:31;100381.50;;;4.93;100.00
66681;BME280;53575;51.366;12.350;2023-02-19T08:13:15;100387.69;;;5.01;100.00
66681;BME280;53575;51.366;12.350;2023-02-19T08:15:45;100393.03;;;5.10;100.00
66681;BME280;53575;51.366;12.350;2023-02-19T08:18:11;100395.94;;;4.80;100.00
66681;BME280;53575;51.366;12.350;2023-02-19T08:20:38;100410.00;;;4.94;100.00
66681;BME280;53575;51.366;12.350;2023-02-19T08:23:04;100410.81;;;4.92;100.00
66681;BME280;53575;51.366;12.350;2023-02-19T08:25:30;100422.16;;;4.97;100.00
66681;BME280;53575;51.366;12.350;2023-02-19T08:27:56;100420.06;;;4.77;100.00
66681;BME280;53575;51.366;12.350;2023-02-19T08:30:21;100444.09;;;4.70;100.00
66681;BME280;53575;51.366;12.350;2023-02-19T08:32:47;100449.28;;;4.72;100.00
66681;BME280;53575;51.366;12.350;2023-02-19T08:35:12;100460.13;;;4.54;100.00
66681;BME280;53575;51.366;12.350;2023-02-19T08:37:38;100460.81;;;4.44;100.00
66681;BME280;53575;51.366;12.350;2023-02-19T08:40:04;100473.66;;;4.39;100.00
66681;BME280;53575;51.366;12.350;2023-02-19T08:42:29;100478.91;;;4.44;100.00
66681;BME280;53575;51.366;12.350;2023-02-19T08:44:54;100495.00;;;4.30;100.00
66681;BME280;53575;51.366;12.350;2023-02-19T08:47:20;100490.75;;;4.34;100.00
66681;BME280;53575;51.366;12.350;2023-02-19T08:49:45;100489.97;;;4.36;100.00
66681;BME280;53575;51.366;12.350;2023-02-19T08:52:11;100490.75;;;4.32;100.00
66681;BME280;53575;51.366;12.350;2023-02-19T08:54:36;100500.16;;;4.30;100.00
66681;BME280;53575;51.366;12.350;2023-02-19T08:57:02;100521.00;;;4.36;100.00
66681;BME280;53575;51.366;12.350;2023-02-19T08:59:29;100516.47;;;4.26;100.00
66681;BME280;53575;51.366;12.350;2023-02-19T09:01:55;100533.31;;;4.47;100.00
66681;BME280;53575;51.366;12.350;2023-02-19T09:04:22;100529.25;;;4.58;100.00
66681;BME280;53575;51.366;12.350;2023-02-19T09:06:47;100531.28;;;4.73;100.00
66681;BME280;53575;51.366;12.350;2023-02-19T09:09:12;100543.59;;;4.84;100.00
66681;BME280;53575;51.366;12.350;2023-02-19T09:11:38;100552.81;;;4.70;100.00
66681;BME280;53575;51.366;12.350;2023-02-19T09:14:03;100548.44;;;4.69;100.00
66681;BME280;53575;51.366;12.350;2023-02-19T09:16:32;100562.25;;;4.68;100.00
66681;BME280;53575;51.366;12.350;2023-02-19T09:18:58;100570.88;;;4.69;100.00
66681;BME280;53575;51.366;12.350;2023-02-19T09:21:23;100576.34;;;4.81;100.00
66681;BME280;53575;51.366;12.350;2023-02-19T09:23:48;100575.50;;;4.83;100.00
66681;BME280;53575;51.366;12.350;2023-02-19T09:26:14;100574.31;;;5.08;100.00
66681;BME280;53575;51.366;12.350;2023-02-19T09:28:39;100583.19;;;5.20;100.00
66681;BME280;53575;51.366;12.350;2023-02-19T09:31:12;100589.28;;;5.23;100.00
66681;BME280;53575;51.366;12.350;2023-02-19T09:33:43;100581.38;;;5.16;100.00
66681;BME280;53575;51.366;12.350;2023-02-19T09:36:10;100595.13;;;5.13;100.00
66681;BME280;53575;51.366;12.350;2023-02-19T09:38:35;100601.25;;;5.18;100.00
66681;BME280;53575;51.366;12.350;2023-02-19T09:41:13;100612.31;;;5.09;100.00
66681;BME280;53575;51.366;12.350;2023-02-19T09:43:39;100606.34;;;5.12;99.54
66681;BME280;53575;51.366;12.350;2023-02-19T09:46:33;100619.69;;;4.89;99.20
66681;BME280;53575;51.366;12.350;2023-02-19T09:49:12;100624.56;;;5.17;98.54
66681;BME280;53575;51.366;12.350;2023-02-19T09:51:41;100609.41;;;5.36;98.53
66681;BME280;53575;51.366;12.350;2023-02-19T09:54:16;100607.66;;;5.35;97.97
66681;BME280;53575;51.366;12.350;2023-02-19T09:56:44;100625.91;;;5.40;96.09
66681;BME280;53575;51.366;12.350;2023-02-19T09:59:21;100627.53;;;5.35;97.94
66681;BME280;53575;51.366;12.350;2023-02-19T10:01:54;100634.69;;;5.48;97.23
66681;BME280;53575;51.366;12.350;2023-02-19T10:04:20;100651.34;;;5.19;97.40
66681;BME280;53575;51.366;12.350;2023-02-19T10:06:46;100664.63;;;5.34;96.34
66681;BME280;53575;51.366;12.350;2023-02-19T10:09:23;100670.25;;;5.54;95.78
66681;BME280;53575;51.366;12.350;2023-02-19T10:11:51;100664.38;;;5.64;95.38
66681;BME280;53575;51.366;12.350;2023-02-19T10:14:22;100673.16;;;5.71;95.71
66681;BME280;53575;51.366;12.350;2023-02-19T10:16:51;100677.63;;;5.79;95.97
66681;BME280;53575;51.366;12.350;2023-02-19T10:19:16;100676.44;;;5.62;93.48
66681;BME280;53575;51.366;12.350;2023-02-19T10:21:42;100684.28;;;5.65;94.03
66681;BME280;53575;51.366;12.350;2023-02-19T10:24:15;100685.16;;;6.09;91.42
66681;BME280;53575;51.366;12.350;2023-02-19T10:26:42;100680.09;;;6.17;91.39
66681;BME280;53575;51.366;12.350;2023-02-19T10:29:08;100690.13;;;5.97;90.40
66681;BME280;53575;51.366;12.350;2023-02-19T10:31:34;100685.47;;;5.82;89.90
66681;BME280;53575;51.366;12.350;2023-02-19T10:34:00;100691.31;;;5.72;90.21
66681;BME280;53575;51.366;12.350;2023-02-19T10:36:38;100709.00;;;5.92;90.61
66681;BME280;53575;51.366;12.350;2023-02-19T10:41:47;100710.06;;;6.01;91.42
66681;BME280;53575;51.366;12.350;2023-02-19T10:44:19;100710.69;;;6.33;90.41
66681;BME280;53575;51.366;12.350;2023-02-19T10:46:50;100714.81;;;6.25;86.67
66681;BME280;53575;51.366;12.350;2023-02-19T10:49:23;100720.69;;;6.14;87.14
66681;BME280;53575;51.366;12.350;2023-02-19T10:51:53;100719.88;;;6.16;86.59
66681;BME280;53575;51.366;12.350;2023-02-19T10:54:31;100718.66;;;6.46;87.22
66681;BME280;53575;51.366;12.350;2023-02-19T11:02:39;100754.81;;;6.33;82.95
66681;BME280;53575;51.366;12.350;2023-02-19T11:07:34;100767.75;;;5.90;84.88
66681;BME280;53575;51.366;12.350;2023-02-19T11:10:01;100763.25;;;6.23;85.29
66681;BME280;53575;51.366;12.350;2023-02-19T11:12:32;100769.97;;;6.12;84.77
66681;BME280;53575;51.366;12.350;2023-02-19T11:15:20;100767.91;;;5.96;85.82
66681;BME280;53575;51.366;12.350;2023-02-19T11:17:54;100770.09;;;6.18;85.12
66681;BME280;53575;51.366;12.350;2023-02-19T11:20:19;100768.56;;;5.87;81.72
66681;BME280;53575;51.366;12.350;2023-02-19T11:22:45;100774.16;;;6.05;80.97
66681;BME280;53575;51.366;12.350;2023-02-19T11:28:00;100793.00;;;5.97;82.21
66681;BME280;53575;51.366;12.350;2023-02-19T11:30:39;100784.59;;;6.08;80.41
66681;BME280;53575;51.366;12.350;2023-02-19T11:35:40;100810.66;;;6.15;82.12
66681;BME280;53575;51.366;12.350;2023-02-19T11:38:08;100804.28;;;5.99;82.49
66681;BME280;53575;51.366;12.350;2023-02-19T11:40:44;100804.56;;;6.13;82.96
66681;BME280;53575;51.366;12.350;2023-02-19T11:46:07;100806.22;;;6.56;79.68
66681;BME280;53575;51.366;12.350;2023-02-19T11:52:27;100812.72;;;6.32;79.51
66681;BME280;53575;51.366;12.350;2023-02-19T12:08:13;100791.16;;;6.37;79.30
66681;BME280;53575;51.366;12.350;2023-02-19T12:14:16;100787.91;;;6.48;78.55
66681;BME280;53575;51.366;12.350;2023-02-19T12:17:01;100812.16;;;6.03;78.73
66681;BME280;53575;51.366;12.350;2023-02-19T12:25:02;100819.84;;;6.41;78.18
66681;BME280;53575;51.366;12.350;2023-02-19T12:35:49;100821.78;;;6.09;77.03
66681;BME280;53575;51.366;12.350;2023-02-19T12:38:42;100819.25;;;6.10;77.43
66681;BME280;53575;51.366;12.350;2023-02-19T12:43:45;100822.72;;;6.56;76.05
66681;BME280;53575;51.366;12.350;2023-02-19T12:46:25;100823.84;;;6.72;74.63
66681;BME280;53575;51.366;12.350;2023-02-19T12:49:14;100815.84;;;7.10;73.68
66681;BME280;53575;51.366;12.350;2023-02-19T12:51:46;100825.63;;;7.28;72.81
66681;BME280;53575;51.366;12.350;2023-02-19T12:54:23;100835.41;;;6.90;73.20
66681;BME280;53575;51.366;12.350;2023-02-19T12:59:23;100836.00;;;6.73;72.18
66681;BME280;53575;51.366;12.350;2023-02-19T13:02:19;100844.31;;;7.05;71.59
66681;BME280;53575;51.366;12.350;2023-02-19T13:05:21;100854.84;;;7.12;69.49
66681;BME280;53575;51.366;12.350;2023-02-19T13:07:59;100854.72;;;7.05;70.71
66681;BME280;53575;51.366;12.350;2023-02-19T13:11:09;100844.72;;;6.78;70.58
66681;BME280;53575;51.366;12.350;2023-02-19T13:13:49;100832.09;;;6.98;69.95
66681;BME280;53575;51.366;12.350;2023-02-19T13:16:18;100840.34;;;7.26;69.24
66681;BME280;53575;51.366;12.350;2023-02-19T13:21:14;100836.47;;;7.58;68.83
66681;BME280;53575;51.366;12.350;2023-02-19T13:24:04;100855.44;;;7.50;66.97
66681;BME280;53575;51.366;12.350;2023-02-19T13:37:40;100869.59;;;6.64;68.83
66681;BME280;53575;51.366;12.350;2023-02-19T13:40:34;100871.13;;;6.54;71.11
66681;BME280;53575;51.366;12.350;2023-02-19T13:43:05;100861.53;;;6.49;72.23
66681;BME280;53575;51.366;12.350;2023-02-19T13:45:40;100868.38;;;6.45;70.69
66681;BME280;53575;51.366;12.350;2023-02-19T13:50:49;100877.13;;;6.50;69.19
66681;BME280;53575;51.366;12.350;2023-02-19T13:56:36;100885.84;;;6.55;67.95
66681;BME280;53575;51.366;12.350;2023-02-19T14:04:52;100899.06;;;6.68;68.67
66681;BME280;53575;51.366;12.350;2023-02-19T14:09:44;100905.06;;;7.11;67.17
66681;BME280;53575;51.366;12.350;2023-02-19T14:17:40;100899.78;;;7.59;64.91
66681;BME280;53575;51.366;12.350;2023-02-19T14:28:01;100888.25;;;7.42;64.71
66681;BME280;53575;51.366;12.350;2023-02-19T14:30:27;100886.41;;;7.35;65.54
66681;BME280;53575;51.366;12.350;2023-02-19T14:32:54;100891.94;;;7.56;66.28
66681;BME280;53575;51.366;12.350;2023-02-19T14:35:21;100891.03;;;7.54;66.01
66681;BME280;53575;51.366;12.350;2023-02-19T14:37:49;100893.34;;;7.36;66.41
66681;BME280;53575;51.366;12.350;2023-02-19T14:40:26;100895.06;;;7.33;66.49
66681;BME280;53575;51.366;12.350;2023-02-19T14:42:55;100900.34;;;7.40;66.17
66681;BME280;53575;51.366;12.350;2023-02-19T14:45:21;100907.88;;;7.24;67.21
66681;BME280;53575;51.366;12.350;2023-02-19T14:47:48;100908.47;;;7.06;67.19
66681;BME280;53575;51.366;12.350;2023-02-19T14:50:26;100913.28;;;6.87;66.60
66681;BME280;53575;51.366;12.350;2023-02-19T14:52:56;100914.81;;;6.75;66.57
66681;BME280;53575;51.366;12.350;2023-02-19T14:55:32;100898.44;;;6.79;67.67
66681;BME280;53575;51.366;12.350;2023-02-19T14:58:03;100891.66;;;6.88;67.48
66681;BME280;53575;51.366;12.350;2023-02-19T15:00:38;100908.16;;;6.90;67.37
66681;BME280;53575;51.366;12.350;2023-02-19T15:03:05;100905.72;;;6.99;66.72
66681;BME280;53575;51.366;12.350;2023-02-19T15:05:33;100903.81;;;6.89;67.47